Time;durP1;ratioP1;P1;durP2;ratioP2;P2;SDS_P1;SDS_P2;PMS_P1;PMS_P2;Temp;Humidity;BMP_temperature;BMP_pressure;BME280_temperature;BME280_humidity;BME280_pressure;Samples;Min_cycle;Max_cycle;Signal;HPM_P1;HPM_P2
2022/09/08 00:00:40;;;;;;;3.15;2.50;;;;;;;12.36;70.18;93825.84;5050043;28;20017;-46
2022/09/08 00:36:56;;;;;;;2.90;2.67;;;;;;;13.33;66.11;93827.16;5096798;27;20998;-50
2022/09/08 00:39:22;;;;;;;4.05;2.70;;;;;;;13.15;66.96;93828.28;5087055;28;20059;-46
2022/09/08 00:41:49;;;;;;;3.67;3.38;;;;;;;12.97;67.08;93817.56;5086969;28;20501;-48
2022/09/08 00:44:53;;;;;;;3.58;3.17;;;;;;;12.70;68.36;93836.59;5087094;28;20052;-45
2022/09/08 00:47:23;;;;;;;3.20;2.75;;;;;;;12.61;68.99;93837.13;5022703;28;20038;-46
2022/09/08 00:49:56;;;;;;;3.33;3.03;;;;;;;12.56;69.34;93838.06;5074500;28;20036;-46
2022/09/08 00:52:22;;;;;;;3.15;2.50;;;;;;;12.56;69.43;93829.75;5086272;28;20020;-48
2022/09/08 00:54:48;;;;;;;4.38;3.28;;;;;;;12.30;69.43;93824.56;5084623;28;20023;-46
2022/09/08 00:57:14;;;;;;;4.55;3.30;;;;;;;12.39;69.09;93848.94;5085000;28;20408;-48
2022/09/08 00:59:40;;;;;;;3.13;2.55;;;;;;;12.37;69.14;93835.63;5086133;28;20091;-46
2022/09/08 01:02:25;;;;;;;4.07;2.90;;;;;;;12.28;69.57;93838.22;5068311;28;20035;-47
2022/09/08 01:04:56;;;;;;;3.80;3.28;;;;;;;12.27;69.78;93831.19;5086892;28;20103;-48
2022/09/08 01:13:37;;;;;;;4.43;4.03;;;;;;;12.17;70.15;93823.41;5060298;28;20036;-43
2022/09/08 01:16:05;;;;;;;3.83;3.00;;;;;;;12.07;70.14;93816.94;5062254;28;20025;-45
2022/09/08 01:18:32;;;;;;;3.70;2.85;;;;;;;12.10;70.25;93823.41;5071079;28;20032;-46
2022/09/08 01:21:22;;;;;;;4.57;3.63;;;;;;;11.99;71.07;93815.44;5071814;28;20024;-44
2022/09/08 01:24:09;;;;;;;3.22;3.00;;;;;;;11.95;71.39;93815.78;5071514;28;20082;-44
2022/09/08 01:26:46;;;;;;;3.92;3.45;;;;;;;11.82;71.66;93821.47;5072606;28;20036;-45
2022/09/08 01:29:12;;;;;;;5.47;3.83;;;;;;;11.90;71.80;93807.66;5071605;28;20052;-44
2022/09/08 01:31:41;;;;;;;3.97;3.42;;;;;;;11.73;71.47;93791.56;5073058;28;20048;-46
2022/09/08 01:34:07;;;;;;;6.47;3.30;;;;;;;11.93;71.42;93818.34;5071203;28;20032;-44
2022/09/08 01:36:32;;;;;;;4.40;3.20;;;;;;;11.82;71.68;93810.41;5072426;28;20513;-44
2022/09/08 01:38:57;;;;;;;3.40;3.10;;;;;;;11.76;72.38;93806.31;5072743;28;20029;-47
2022/09/08 01:41:23;;;;;;;4.05;3.17;;;;;;;11.92;71.66;93805.81;5072814;28;20566;-46
2022/09/08 01:43:48;;;;;;;3.33;2.95;;;;;;;11.87;72.19;93803.94;5072567;28;20447;-43
2022/09/08 01:46:14;;;;;;;3.40;3.10;;;;;;;12.00;72.08;93803.06;5072650;28;20028;-45
2022/09/08 01:48:39;;;;;;;6.55;4.93;;;;;;;12.00;71.86;93795.50;5072334;28;20028;-46
2022/09/08 01:51:07;;;;;;;4.05;3.45;;;;;;;11.96;70.88;93794.38;5072095;28;20077;-46
2022/09/08 01:53:32;;;;;;;3.60;3.05;;;;;;;11.91;71.16;93801.56;5072621;28;20036;-47
2022/09/08 01:55:58;;;;;;;3.40;3.10;;;;;;;11.88;70.89;93797.13;5072704;28;20385;-47
2022/09/08 01:58:24;;;;;;;3.47;2.78;;;;;;;11.75;71.28;93794.50;5072190;28;20024;-46
2022/09/08 02:00:50;;;;;;;3.60;3.28;;;;;;;11.62;72.03;93797.38;5072413;28;20099;-46
2022/09/08 02:03:15;;;;;;;3.72;3.38;;;;;;;11.73;71.52;93807.41;5072094;28;20490;-47
2022/09/08 02:05:42;;;;;;;4.43;3.38;;;;;;;11.60;71.86;93802.72;5072105;28;20496;-48
2022/09/08 02:08:08;;;;;;;4.80;3.33;;;;;;;11.66;71.58;93810.84;5071917;28;20063;-45
2022/09/08 02:10:34;;;;;;;3.88;3.58;;;;;;;11.61;72.13;93811.78;5071923;28;20025;-46
2022/09/08 02:12:59;;;;;;;4.65;4.00;;;;;;;11.59;71.96;93809.53;5071380;28;20016;-43
2022/09/08 02:15:25;;;;;;;4.10;3.15;;;;;;;11.52;72.15;93807.47;5071837;28;20032;-46
2022/09/08 02:17:50;;;;;;;3.58;3.08;;;;;;;11.40;72.44;93798.03;5070905;28;20028;-43
2022/09/08 02:20:16;;;;;;;4.38;3.33;;;;;;;11.34;72.51;93789.91;5071846;28;20056;-44
2022/09/08 02:22:43;;;;;;;4.38;3.88;;;;;;;11.48;73.09;93806.38;5071646;28;20017;-45
2022/09/08 02:25:08;;;;;;;3.45;3.15;;;;;;;11.41;72.47;93814.06;5071496;28;20035;-45
2022/09/08 02:27:34;;;;;;;3.72;3.00;;;;;;;11.29;72.77;93809.38;5070971;28;20024;-42
2022/09/08 02:30:00;;;;;;;3.72;3.38;;;;;;;11.37;72.47;93807.41;5071889;28;20409;-46
2022/09/08 02:32:25;;;;;;;4.90;3.30;;;;;;;11.40;72.56;93803.53;5071440;28;20485;-43
2022/09/08 02:34:52;;;;;;;3.90;3.40;;;;;;;11.47;72.41;93796.56;5071384;28;20056;-45
2022/09/08 02:37:17;;;;;;;5.40;3.55;;;;;;;11.35;73.03;93802.41;5071580;28;20028;-45
2022/09/08 02:39:43;;;;;;;4.28;3.22;;;;;;;11.37;73.01;93801.88;5071616;28;20421;-46
2022/09/08 02:42:11;;;;;;;4.55;3.35;;;;;;;11.29;72.60;93806.63;5071396;28;20021;-42
2022/09/08 02:44:37;;;;;;;4.93;3.65;;;;;;;11.14;72.60;93801.75;5071492;28;20409;-43
2022/09/08 02:47:03;;;;;;;3.70;3.38;;;;;;;11.21;72.22;93809.34;5071161;28;20024;-44
2022/09/08 02:49:30;;;;;;;4.63;3.38;;;;;;;11.28;71.77;93805.88;5071426;28;20024;-42
2022/09/08 02:51:55;;;;;;;6.05;3.53;;;;;;;11.42;71.41;93800.97;5071343;28;20048;-45
2022/09/08 02:54:21;;;;;;;7.03;4.25;;;;;;;11.38;71.80;93808.88;5071347;28;20482;-43
2022/09/08 02:56:46;;;;;;;4.55;4.13;;;;;;;11.41;71.46;93800.22;5071286;28;20020;-46
2022/09/08 02:59:12;;;;;;;8.15;7.38;;;;;;;11.27;71.27;93789.84;5071244;28;20028;-48
2022/09/08 03:01:38;;;;;;;10.07;4.78;;;;;;;11.38;71.60;93798.56;5071138;28;20012;-47
2022/09/08 03:04:05;;;;;;;7.28;5.22;;;;;;;11.29;72.03;93804.59;5069836;28;20013;-43
2022/09/08 03:06:31;;;;;;;4.65;4.15;;;;;;;11.23;72.59;93806.03;5070685;28;20071;-43
2022/09/08 03:08:56;;;;;;;5.85;4.88;;;;;;;11.21;73.05;93803.09;5070919;28;20021;-47
2022/09/08 03:11:23;;;;;;;8.07;4.70;;;;;;;11.11;73.69;93815.94;5066025;28;20025;-46
2022/09/08 03:13:48;;;;;;;6.40;3.80;;;;;;;11.16;72.69;93804.72;5070665;28;20036;-43
2022/09/08 03:16:14;;;;;;;6.95;4.43;;;;;;;11.14;71.98;93814.81;5070605;28;20485;-47
2022/09/08 03:18:39;;;;;;;4.32;3.88;;;;;;;11.07;71.84;93790.63;5070885;28;20036;-45
2022/09/08 03:21:10;;;;;;;5.93;5.40;;;;;;;11.20;71.91;93802.34;5070872;28;20035;-43
2022/09/08 03:23:36;;;;;;;5.07;3.78;;;;;;;11.20;71.66;93802.34;5070555;28;20498;-45
2022/09/08 03:26:06;;;;;;;4.80;3.95;;;;;;;11.11;71.52;93804.88;5070758;28;20063;-46
2022/09/08 03:28:32;;;;;;;6.70;4.35;;;;;;;10.93;71.71;93798.31;5070564;28;20082;-49
2022/09/08 03:30:58;;;;;;;9.73;5.03;;;;;;;10.96;72.55;93802.03;5070639;28;20039;-47
2022/09/08 03:33:24;;;;;;;6.30;3.65;;;;;;;10.91;72.33;93802.91;5070719;28;20017;-48
2022/09/08 03:35:49;;;;;;;5.80;4.75;;;;;;;10.98;71.99;93804.97;5070243;28;20043;-45
2022/09/08 03:38:17;;;;;;;5.32;4.78;;;;;;;10.91;71.97;93789.84;5070382;28;20043;-48
2022/09/08 03:40:43;;;;;;;7.30;4.88;;;;;;;11.04;71.69;93803.53;5070361;28;20516;-46
2022/09/08 03:43:09;;;;;;;6.25;4.57;;;;;;;10.95;71.84;93806.78;5070199;28;20390;-44
2022/09/08 03:45:34;;;;;;;4.70;3.97;;;;;;;10.91;71.32;93802.91;5069939;28;20043;-43
2022/09/08 03:48:00;;;;;;;8.50;7.80;;;;;;;10.96;71.75;93815.84;5070216;28;20025;-43
2022/09/08 03:50:25;;;;;;;4.70;4.20;;;;;;;11.00;71.11;93805.88;5070285;28;20412;-46
2022/09/08 03:52:51;;;;;;;8.68;5.57;;;;;;;10.90;71.31;93806.94;5070193;28;20066;-46
2022/09/08 03:55:17;;;;;;;7.03;4.55;;;;;;;10.89;71.64;93805.47;5070489;28;20012;-43
2022/09/08 03:57:43;;;;;;;5.97;4.53;;;;;;;10.78;71.97;93814.03;5070476;28;20157;-43
2022/09/08 04:00:10;;;;;;;7.93;4.13;;;;;;;10.75;72.15;93815.09;5069767;28;20531;-43
2022/09/08 04:02:35;;;;;;;6.00;4.28;;;;;;;10.73;72.70;93812.91;5068684;28;20036;-46
2022/09/08 04:05:01;;;;;;;6.95;5.38;;;;;;;10.72;72.79;93816.94;5070424;28;20020;-44
2022/09/08 04:07:29;;;;;;;5.05;3.83;;;;;;;10.65;72.95;93812.81;5070253;28;20394;-44
2022/09/08 04:09:56;;;;;;;6.05;4.70;;;;;;;10.58;73.22;93815.53;5069796;28;20034;-47
2022/09/08 04:12:23;;;;;;;5.00;3.78;;;;;;;10.51;73.29;93800.38;5069938;28;20028;-47
2022/09/08 04:14:48;;;;;;;7.95;4.97;;;;;;;10.55;73.97;93822.88;5070265;28;20058;-47
2022/09/08 04:17:15;;;;;;;5.32;4.20;;;;;;;10.66;73.46;93822.59;5070326;28;20024;-42
2022/09/08 04:19:41;;;;;;;4.88;3.83;;;;;;;10.57;72.75;93811.28;5069521;28;20021;-41
2022/09/08 04:22:06;;;;;;;7.20;4.22;;;;;;;10.68;72.66;93822.06;5070071;28;20047;-43
2022/09/08 04:24:32;;;;;;;5.88;5.35;;;;;;;10.66;72.38;93828.13;5069907;28;20094;-43
2022/09/08 04:26:58;;;;;;;12.43;8.10;;;;;;;10.61;72.82;93828.28;5069848;28;20016;-45
2022/09/08 04:29:24;;;;;;;6.22;4.05;;;;;;;10.60;72.55;93829.53;5069804;28;20028;-46
2022/09/08 04:31:49;;;;;;;5.32;4.47;;;;;;;10.77;72.50;93827.09;5069752;28;20028;-42
2022/09/08 04:34:15;;;;;;;7.40;6.65;;;;;;;10.75;72.81;93812.34;5070115;28;20020;-44
2022/09/08 04:36:42;;;;;;;5.50;4.97;;;;;;;10.80;72.78;93814.97;5069645;28;20479;-48
2022/09/08 04:39:08;;;;;;;8.30;7.65;;;;;;;10.92;72.50;93816.16;5069690;28;20513;-45
2022/09/08 04:41:34;;;;;;;11.20;10.40;;;;;;;10.80;72.43;93814.22;5070136;28;20025;-47
2022/09/08 04:44:01;;;;;;;4.90;3.78;;;;;;;10.79;73.19;93812.75;5069841;28;20463;-41
2022/09/08 04:46:27;;;;;;;5.30;3.45;;;;;;;10.44;71.94;93765.19;5070042;28;20025;-45
2022/09/08 04:48:53;;;;;;;5.07;4.25;;;;;;;10.83;70.89;93810.41;5069726;28;20558;-41
2022/09/08 04:51:19;;;;;;;4.45;3.67;;;;;;;10.72;71.20;93811.41;5073690;28;20035;-47
2022/09/08 04:53:45;;;;;;;4.10;3.72;;;;;;;10.77;71.76;93815.31;5073430;28;20024;-46
2022/09/08 04:56:11;;;;;;;7.32;4.22;;;;;;;10.91;71.66;93813.94;5072936;28;20031;-47
2022/09/08 04:58:39;;;;;;;4.55;4.03;;;;;;;10.90;72.26;93807.69;5073554;28;20021;-44
2022/09/08 05:01:15;;;;;;;4.60;3.65;;;;;;;10.98;72.47;93813.97;5073211;28;20028;-47
2022/09/08 05:03:41;;;;;;;7.03;4.60;;;;;;;10.95;72.95;93808.81;5071706;28;20020;-45
2022/09/08 05:06:13;;;;;;;5.25;3.88;;;;;;;10.90;73.60;93784.81;5055423;28;20021;-46
2022/09/08 05:08:40;;;;;;;4.78;3.17;;;;;;;10.94;73.89;93793.50;5073392;28;20024;-46
2022/09/08 05:11:05;;;;;;;4.75;4.20;;;;;;;11.02;74.75;93808.84;5072965;28;20442;-47
2022/09/08 05:13:31;;;;;;;5.97;4.57;;;;;;;11.06;75.00;93797.47;5071846;28;20024;-44
2022/09/08 05:16:06;;;;;;;7.97;3.75;;;;;;;11.19;75.12;93811.19;5073111;28;20021;-44
2022/09/08 05:18:31;;;;;;;7.70;4.35;;;;;;;11.38;75.75;93814.41;5072858;28;20028;-46
2022/09/08 05:20:57;;;;;;;5.43;4.03;;;;;;;11.40;75.97;93823.66;5073100;28;20031;-46
2022/09/08 05:23:22;;;;;;;9.70;4.60;;;;;;;11.58;76.45;93815.63;5072784;28;20017;-49
2022/09/08 05:26:00;;;;;;;5.70;4.13;;;;;;;11.66;76.15;93814.34;5073022;28;20032;-46
2022/09/08 05:28:27;;;;;;;4.20;3.78;;;;;;;11.77;76.79;93827.91;5073057;28;20103;-46
2022/09/08 05:30:53;;;;;;;8.38;4.70;;;;;;;11.92;76.56;93816.13;5072845;28;20493;-43
2022/09/08 05:33:19;;;;;;;6.22;4.20;;;;;;;12.06;76.97;93811.94;5069836;28;20059;-44
2022/09/08 05:35:44;;;;;;;3.53;3.22;;;;;;;12.08;77.68;93814.91;5072483;28;20063;-47
2022/09/08 05:38:09;;;;;;;5.22;3.70;;;;;;;12.12;78.17;93810.50;5072454;28;20036;-48
2022/09/08 05:40:38;;;;;;;7.28;3.80;;;;;;;12.31;78.24;93812.16;5072484;28;20166;-45
2022/09/08 05:43:03;;;;;;;4.38;3.55;;;;;;;12.47;78.23;93813.69;5072470;28;20027;-43
2022/09/08 05:45:29;;;;;;;7.07;3.22;;;;;;;12.56;78.33;93810.38;5072476;28;20033;-45
2022/09/08 05:47:54;;;;;;;5.35;3.58;;;;;;;12.72;78.78;93809.06;5072785;28;20081;-44
2022/09/08 05:50:20;;;;;;;5.50;4.35;;;;;;;12.79;78.00;93808.34;5070266;28;20308;-46
2022/09/08 05:52:45;;;;;;;7.45;5.10;;;;;;;12.66;79.18;93803.72;5071493;28;20016;-43
2022/09/08 05:55:11;;;;;;;6.40;4.25;;;;;;;12.73;78.98;93805.75;5070790;28;20128;-43
2022/09/08 05:57:36;;;;;;;7.15;4.90;;;;;;;12.90;78.15;93807.97;5071255;28;20017;-47
2022/09/08 06:00:06;;;;;;;7.47;4.97;;;;;;;13.06;77.51;93805.94;5070960;28;20052;-47
2022/09/08 06:02:32;;;;;;;5.47;4.57;;;;;;;13.23;76.98;93804.06;5071041;28;20016;-44
2022/09/08 06:04:58;;;;;;;8.30;4.43;;;;;;;13.39;75.90;93810.31;5070544;28;20036;-44
2022/09/08 06:07:24;;;;;;;6.10;4.38;;;;;;;13.64;74.60;93811.91;5059069;28;20413;-46
2022/09/08 06:09:49;;;;;;;6.70;4.25;;;;;;;13.72;75.35;93808.38;5070852;28;20032;-45
2022/09/08 06:12:15;;;;;;;6.15;5.55;;;;;;;13.85;75.01;93810.91;5069733;28;20483;-43
2022/09/08 06:14:41;;;;;;;5.78;4.55;;;;;;;14.00;74.92;93805.28;5070597;28;20028;-44
2022/09/08 06:17:06;;;;;;;7.97;5.85;;;;;;;14.21;74.43;93808.50;5070276;28;20020;-44
2022/09/08 06:19:32;;;;;;;5.55;4.90;;;;;;;14.50;73.71;93804.09;5064022;28;20028;-45
2022/09/08 06:21:58;;;;;;;5.28;4.75;;;;;;;14.78;72.75;93817.59;5070278;28;20437;-44
2022/09/08 06:24:23;;;;;;;4.30;3.40;;;;;;;15.17;71.50;93818.75;5070475;28;20095;-45
2022/09/08 06:26:57;;;;;;;7.28;3.83;;;;;;;15.43;70.20;93823.75;5067057;28;20406;-45
2022/09/08 06:29:46;;;;;;;3.47;3.17;;;;;;;15.84;67.08;93822.19;5060335;28;20024;-44
2022/09/08 06:32:33;;;;;;;5.32;3.50;;;;;;;16.07;65.75;93819.84;5058518;28;20082;-44
2022/09/08 06:35:10;;;;;;;4.05;3.30;;;;;;;16.11;65.51;93816.66;5068418;28;20449;-45
2022/09/08 06:37:40;;;;;;;3.83;3.40;;;;;;;16.13;66.57;93823.13;5068939;28;20093;-44
2022/09/08 06:40:13;;;;;;;4.03;3.33;;;;;;;16.25;64.91;93824.09;5069251;28;20440;-45
2022/09/08 06:42:45;;;;;;;4.88;3.30;;;;;;;16.34;65.51;93822.69;5068675;28;20095;-44
2022/09/08 06:45:18;;;;;;;3.88;3.20;;;;;;;16.51;65.73;93814.28;5068006;28;20028;-45
2022/09/08 06:47:50;;;;;;;3.15;2.85;;;;;;;16.89;64.34;93813.72;5074228;28;20054;-44
2022/09/08 06:50:15;;;;;;;3.72;3.42;;;;;;;16.99;63.32;93792.91;5069742;28;20525;-44
2022/09/08 06:52:44;;;;;;;2.13;2.03;;;;;;;17.32;62.06;93816.38;5069018;28;20034;-45
2022/09/08 06:55:12;;;;;;;3.13;2.70;;;;;;;17.53;62.29;93818.63;5068103;28;20189;-46
2022/09/08 06:57:43;;;;;;;2.88;2.58;;;;;;;17.71;62.73;93811.59;5067759;28;20512;-44
2022/09/08 07:00:15;;;;;;;2.65;2.45;;;;;;;17.94;60.89;93817.47;5067781;28;20051;-44
2022/09/08 07:02:50;;;;;;;3.53;2.42;;;;;;;18.56;60.20;93820.50;5066652;28;20405;-43
2022/09/08 07:05:33;;;;;;;3.00;2.50;;;;;;;19.58;55.76;93816.38;5068386;28;20025;-46
2022/09/08 07:08:10;;;;;;;3.67;2.67;;;;;;;20.77;53.52;93814.94;5067541;28;20028;-44
2022/09/08 07:10:45;;;;;;;5.68;2.97;;;;;;;21.94;50.23;93814.31;5068250;28;20028;-45
2022/09/08 07:13:35;;;;;;;2.45;2.22;;;;;;;23.19;47.02;93815.66;5075629;28;20168;-41
2022/09/08 07:16:01;;;;;;;2.15;1.95;;;;;;;24.10;44.65;93816.19;5047656;28;20498;-43
2022/09/08 07:18:41;;;;;;;2.60;2.03;;;;;;;24.75;42.54;93819.38;5049256;28;20029;-42
2022/09/08 07:21:28;;;;;;;1.92;1.65;;;;;;;25.27;41.32;93816.19;5081771;28;20060;-42
2022/09/08 07:23:58;;;;;;;1.77;1.60;;;;;;;25.60;40.29;93828.97;5079816;28;20054;-42
2022/09/08 07:26:44;;;;;;;2.28;1.80;;;;;;;26.68;38.26;93819.41;5066579;28;20028;-42
2022/09/08 07:29:29;;;;;;;1.58;1.48;;;;;;;26.71;36.37;93823.06;5068708;28;20028;-44
2022/09/08 07:31:55;;;;;;;4.32;1.40;;;;;;;27.15;35.63;93826.94;5081123;28;20052;-42
2022/09/08 07:34:26;;;;;;;1.92;1.70;;;;;;;27.44;34.83;93823.84;5047823;28;20476;-42
2022/09/08 07:36:59;;;;;;;1.55;1.45;;;;;;;27.61;33.48;93823.75;5048463;28;20045;-42
2022/09/08 07:39:49;;;;;;;1.35;1.25;;;;;;;27.70;31.90;93824.78;5049087;28;20043;-43
2022/09/08 07:42:16;;;;;;;2.22;1.92;;;;;;;28.19;32.97;93825.16;5044684;28;20033;-43
2022/09/08 07:44:41;;;;;;;3.97;1.45;;;;;;;29.04;31.29;93825.13;5048558;28;20047;-42
2022/09/08 07:47:31;;;;;;;1.63;1.35;;;;;;;29.04;29.31;93830.81;5046532;28;20082;-46
2022/09/08 07:50:10;;;;;;;1.90;1.45;;;;;;;27.64;31.53;93818.88;5046262;28;20028;-43
2022/09/08 07:52:53;;;;;;;1.80;1.45;;;;;;;27.96;31.87;93825.72;5047911;28;22792;-45
2022/09/08 07:55:41;;;;;;;1.30;1.10;;;;;;;29.09;29.76;93827.41;5065282;28;20048;-43
2022/09/08 07:58:16;;;;;;;;;;;;;;;29.82;27.69;93830.34;5065920;28;20039;-42
2022/09/08 08:00:49;;;;;;;2.13;1.73;;;;;;;28.78;29.43;93836.38;5064623;28;20041;-41
2022/09/08 08:03:19;;;;;;;1.52;1.42;;;;;;;29.03;28.77;93829.34;5065768;28;20504;-43
2022/09/08 08:05:50;;;;;;;1.75;1.65;;;;;;;29.93;28.64;93834.22;5066209;28;20148;-44
2022/09/08 08:08:18;;;;;;;1.83;1.70;;;;;;;30.34;27.91;93839.63;5064640;28;20467;-43
2022/09/08 08:11:06;;;;;;;1.92;1.30;;;;;;;31.06;27.34;93840.03;5062338;28;20032;-47
2022/09/08 08:14:05;;;;;;;1.35;1.25;;;;;;;31.91;25.85;93837.66;5055047;28;20028;-47
2022/09/08 08:16:58;;;;;;;1.75;1.60;;;;;;;32.25;25.24;93845.50;5048593;28;20528;-44
2022/09/08 08:19:47;;;;;;;1.55;1.45;;;;;;;32.74;24.63;93842.16;5063180;28;20039;-42
2022/09/08 08:22:42;;;;;;;1.45;1.35;;;;;;;33.03;23.53;93831.94;5055839;28;20040;-43
2022/09/08 08:25:13;;;;;;;1.40;1.30;;;;;;;33.34;22.19;93837.41;5067810;28;20044;-42
2022/09/08 08:27:57;;;;;;;2.55;1.25;;;;;;;33.77;22.59;93838.75;5070363;28;20056;-47
2022/09/08 08:30:24;;;;;;;1.25;1.15;;;;;;;34.00;21.58;93829.03;5070278;28;20036;-43
2022/09/08 08:32:58;;;;;;;1.55;1.10;;;;;;;34.97;21.77;93838.69;5069584;28;20025;-42
2022/09/08 08:35:39;;;;;;;1.35;1.25;;;;;;;35.67;19.99;93835.69;5069947;28;20441;-43
2022/09/08 08:38:05;;;;;;;3.05;1.42;;;;;;;36.20;20.23;93834.53;5076886;28;20088;-46
2022/09/08 08:40:41;;;;;;;1.33;1.23;;;;;;;36.34;20.74;93833.84;5090166;28;20024;-44
2022/09/08 08:43:33;;;;;;;1.13;1.02;;;;;;;36.30;20.38;93830.97;5088557;28;20439;-43
2022/09/08 08:46:30;;;;;;;1.35;1.25;;;;;;;36.38;20.50;93831.00;5090521;28;20063;-44
2022/09/08 08:49:10;;;;;;;2.03;1.10;;;;;;;37.10;19.37;93825.38;5066821;28;20078;-44
2022/09/08 08:51:51;;;;;;;1.27;1.20;;;;;;;37.65;18.89;93828.25;5048474;28;20037;-44
2022/09/08 08:54:34;;;;;;;1.48;1.30;;;;;;;37.30;18.19;93818.16;5047916;28;20090;-43
2022/09/08 08:57:18;;;;;;;1.30;1.20;;;;;;;37.78;18.77;93815.25;5047942;28;20036;-45
2022/09/08 09:00:03;;;;;;;3.00;1.13;;;;;;;37.38;18.12;93810.28;5046723;28;20245;-49
2022/09/08 09:02:50;;;;;;;1.52;1.42;;;;;;;37.57;18.37;93799.44;5048918;28;20062;-48
2022/09/08 09:05:48;;;;;;;1.30;1.20;;;;;;;37.50;18.11;93801.63;5049731;28;20090;-42
2022/09/08 09:08:31;;;;;;;2.20;2.00;;;;;;;35.13;19.74;93795.78;5044428;28;20041;-49
2022/09/08 09:11:27;;;;;;;1.80;1.27;;;;;;;35.68;20.18;93791.88;5051485;28;20476;-43
2022/09/08 09:13:58;;;;;;;1.30;1.20;;;;;;;35.28;21.40;93788.72;5049918;28;20028;-48
2022/09/08 09:16:26;;;;;;;2.22;1.48;;;;;;;35.97;19.96;93789.16;5049539;28;20525;-43
2022/09/08 09:19:21;;;;;;;1.75;1.08;;;;;;;36.28;20.16;93779.19;5061351;28;20490;-47
2022/09/08 09:22:06;;;;;;;1.52;1.42;;;;;;;36.71;20.13;93774.25;5059438;28;20440;-45
2022/09/08 09:24:50;;;;;;;1.55;1.08;;;;;;;37.41;18.74;93773.53;5069470;28;20453;-45
2022/09/08 09:27:28;;;;;;;2.20;1.50;;;;;;;38.03;18.35;93764.75;5067652;28;20041;-47
2022/09/08 09:30:12;;;;;;;1.65;1.33;;;;;;;37.40;18.28;93757.72;5069164;28;20070;-46
2022/09/08 09:32:59;;;;;;;1.90;1.30;;;;;;;36.04;19.83;93767.63;5067732;28;20036;-47
2022/09/08 09:35:37;;;;;;;2.42;1.60;;;;;;;34.26;21.72;93763.44;5066509;28;20085;-43
2022/09/08 09:38:13;;;;;;;2.42;1.27;;;;;;;33.02;22.73;93758.94;5067642;28;20048;-46
2022/09/08 09:41:03;;;;;;;3.88;1.52;;;;;;;32.70;26.19;93757.00;5069052;28;20042;-44
2022/09/08 09:43:31;;;;;;;1.80;1.70;;;;;;;32.47;25.07;93758.06;5068832;28;20332;-47
2022/09/08 09:46:11;;;;;;;2.00;1.75;;;;;;;32.15;25.54;93746.75;5068524;28;20522;-45
2022/09/08 09:49:02;;;;;;;1.85;1.63;;;;;;;31.39;25.76;93751.63;5068517;28;20028;-46
2022/09/08 09:51:36;;;;;;;2.38;1.92;;;;;;;31.03;27.05;93730.16;5068743;28;20439;-43
2022/09/08 09:54:09;;;;;;;1.95;1.85;;;;;;;30.52;27.33;93748.19;5067349;28;20169;-45
2022/09/08 09:57:06;;;;;;;1.80;1.70;;;;;;;29.85;27.56;93755.00;5070069;28;20034;-45
2022/09/08 09:59:56;;;;;;;1.90;1.80;;;;;;;29.05;29.68;93756.22;5063636;28;20144;-43
2022/09/08 10:02:35;;;;;;;2.40;2.20;;;;;;;28.98;31.84;93751.00;5088294;28;20032;-42
2022/09/08 10:05:41;;;;;;;2.38;1.85;;;;;;;29.00;30.55;93742.56;5072705;28;20036;-42
2022/09/08 10:08:13;;;;;;;2.63;1.80;;;;;;;29.20;31.04;93711.88;5068148;28;20024;-44
2022/09/08 10:11:03;;;;;;;2.95;2.28;;;;;;;29.91;29.28;93740.91;5068042;28;20520;-42
2022/09/08 10:13:53;;;;;;;2.40;2.20;;;;;;;29.53;29.82;93734.16;5068216;28;20425;-44
2022/09/08 10:16:30;;;;;;;3.80;3.08;;;;;;;29.64;31.12;93738.75;5055259;28;20102;-42
2022/09/08 10:19:26;;;;;;;3.33;2.00;;;;;;;30.32;30.21;93731.31;5066585;28;20412;-44
2022/09/08 10:22:03;;;;;;;1.83;1.65;;;;;;;31.72;27.86;93732.34;5063162;28;20490;-48
2022/09/08 10:24:59;;;;;;;1.90;1.80;;;;;;;32.15;25.60;93718.19;5067724;28;20340;-47
2022/09/08 10:28:03;;;;;;;1.80;1.70;;;;;;;32.62;26.60;93714.00;5060829;28;20089;-43
2022/09/08 10:31:04;;;;;;;1.63;1.45;;;;;;;33.88;24.10;93704.97;5048042;28;20078;-48
2022/09/08 10:34:06;;;;;;;2.67;2.47;;;;;;;34.59;25.27;93707.13;5049162;28;20040;-43
2022/09/08 10:36:52;;;;;;;2.83;2.25;;;;;;;34.84;24.37;93703.03;5059348;28;20181;-45
2022/09/08 10:39:39;;;;;;;1.83;1.73;;;;;;;34.78;23.74;93696.53;5066632;28;20098;-44
2022/09/08 10:42:23;;;;;;;2.25;1.70;;;;;;;34.14;23.64;93699.53;5066209;28;20546;-45
2022/09/08 10:45:17;;;;;;;1.92;1.75;;;;;;;34.52;24.04;93685.59;5067770;28;20025;-45
2022/09/08 10:48:08;;;;;;;1.90;1.80;;;;;;;34.99;23.57;93692.34;5066569;28;20059;-44
2022/09/08 10:50:35;;;;;;;2.15;1.95;;;;;;;35.67;23.49;93678.38;5064331;28;20055;-45
2022/09/08 10:53:33;;;;;;;4.53;1.60;;;;;;;35.16;23.04;93679.56;5067400;28;20025;-42
2022/09/08 10:56:11;;;;;;;1.88;1.73;;;;;;;35.54;22.13;93676.19;5067371;28;20028;-46
2022/09/08 10:58:43;;;;;;;1.50;1.40;;;;;;;35.71;22.68;93680.56;5067408;28;20043;-46
2022/09/08 11:01:23;;;;;;;1.75;1.65;;;;;;;35.61;22.55;93680.50;5064962;28;20115;-42
2022/09/08 11:04:08;;;;;;;6.05;2.10;;;;;;;36.12;21.63;93676.38;5067324;28;20390;-49
2022/09/08 11:06:51;;;;;;;1.60;1.50;;;;;;;35.88;21.75;93673.44;5067451;28;20112;-50
2022/09/08 11:09:31;;;;;;;1.80;1.70;;;;;;;35.80;22.07;93676.97;5067177;28;20032;-43
2022/09/08 11:12:19;;;;;;;1.70;1.60;;;;;;;36.43;22.23;93669.22;5066844;28;20564;-48
2022/09/08 11:14:59;;;;;;;1.67;1.37;;;;;;;36.25;22.27;93666.34;5067174;28;20029;-43
2022/09/08 11:17:26;;;;;;;1.60;1.50;;;;;;;35.92;21.36;93661.22;5066061;28;20038;-43
2022/09/08 11:20:08;;;;;;;1.80;1.70;;;;;;;35.41;23.45;93666.75;5065822;28;20043;-44
2022/09/08 11:22:58;;;;;;;1.80;1.70;;;;;;;34.01;23.95;93661.44;5066831;28;20039;-43
2022/09/08 11:25:36;;;;;;;2.10;1.95;;;;;;;33.31;25.43;93632.00;5067040;28;20032;-44
2022/09/08 11:28:18;;;;;;;2.70;2.00;;;;;;;33.09;25.70;93649.63;5067667;28;20059;-43
2022/09/08 11:31:00;;;;;;;1.80;1.60;;;;;;;32.46;26.72;93650.09;5066884;28;20127;-45
2022/09/08 11:33:34;;;;;;;2.22;1.80;;;;;;;31.61;26.46;93659.31;5064770;28;20045;-44
2022/09/08 11:36:21;;;;;;;1.92;1.65;;;;;;;31.69;27.16;93653.75;5067408;28;20125;-48
2022/09/08 11:39:09;;;;;;;2.50;2.10;;;;;;;31.15;29.77;93659.09;5067949;28;20038;-43
2022/09/08 11:42:04;;;;;;;2.03;1.67;;;;;;;31.06;28.57;93658.22;5055964;28;20028;-48
2022/09/08 11:44:39;;;;;;;2.15;1.85;;;;;;;31.10;28.81;93664.00;5006170;28;20226;-43
2022/09/08 11:47:23;;;;;;;2.25;2.08;;;;;;;31.32;27.52;93663.72;5068019;28;20062;-43
2022/09/08 11:50:37;;;;;;;2.33;2.13;;;;;;;31.22;29.05;93664.25;5068061;28;20024;-45
2022/09/08 11:53:26;;;;;;;1.67;1.58;;;;;;;31.16;28.86;93663.41;5028932;28;20415;-43
2022/09/08 11:55:57;;;;;;;;;;;;;;;31.14;28.10;93664.09;5049393;28;20036;-45
2022/09/08 11:59:01;;;;;;;2.47;2.00;;;;;;;30.81;29.38;93670.50;5061114;28;20305;-44
2022/09/08 12:01:46;;;;;;;2.40;2.20;;;;;;;30.73;29.41;93656.75;5065810;28;20028;-46
2022/09/08 12:04:44;;;;;;;1.73;1.63;;;;;;;30.78;29.44;93657.56;5067563;28;20382;-46
2022/09/08 12:07:52;;;;;;;3.30;2.90;;;;;;;29.96;30.29;93654.22;5004665;28;20519;-46
2022/09/08 12:10:52;;;;;;;2.80;2.40;;;;;;;30.31;30.60;93650.13;5062284;28;20039;-46
2022/09/08 12:13:51;;;;;;;2.50;2.00;;;;;;;30.50;30.02;93656.94;5065440;28;20032;-44
2022/09/08 12:16:43;;;;;;;3.65;1.95;;;;;;;29.94;30.43;93657.03;5065800;28;20032;-44
2022/09/08 12:19:21;;;;;;;2.22;2.03;;;;;;;29.83;31.06;93658.16;5066164;28;20100;-48
2022/09/08 12:22:12;;;;;;;2.20;2.00;;;;;;;29.85;31.57;93654.63;5064343;28;20648;-47
2022/09/08 12:25:06;;;;;;;2.28;1.77;;;;;;;30.00;32.06;93662.13;5052689;28;20131;-44
2022/09/08 12:28:10;;;;;;;2.17;1.98;;;;;;;30.04;31.93;93659.38;5065842;28;20492;-45
2022/09/08 12:31:04;;;;;;;2.70;2.40;;;;;;;29.97;31.05;93655.66;5065111;28;20043;-47
2022/09/08 12:33:58;;;;;;;6.97;4.22;;;;;;;29.74;31.74;93664.31;5050124;28;20166;-44
2022/09/08 12:36:32;;;;;;;40.75;20.67;;;;;;;29.64;32.16;93670.44;5048655;28;20045;-46
2022/09/08 12:39:35;;;;;;;34.65;16.60;;;;;;;29.53;33.37;93668.00;5048718;28;20854;-42
2022/09/08 12:42:03;;;;;;;4.07;3.67;;;;;;;29.24;32.46;93675.75;5055285;28;20068;-52
2022/09/08 12:44:39;;;;;;;5.38;3.85;;;;;;;29.06;33.39;93665.97;5068933;28;20020;-43
2022/09/08 12:47:22;;;;;;;9.57;6.43;;;;;;;29.08;33.93;93666.00;5100606;28;20055;-46
2022/09/08 12:50:09;;;;;;;14.43;8.70;;;;;;;29.05;33.40;93670.91;5068896;28;20031;-43